createdAt,value
2022-12-06T00:00:35.437Z,77.45
2022-12-06T00:03:22.926Z,73.18
2022-12-06T00:06:12.171Z,71.57
2022-12-06T00:09:00.208Z,73.20
2022-12-06T00:11:48.914Z,96.15
2022-12-06T00:14:36.200Z,88.30
2022-12-06T00:17:24.493Z,78.80
2022-12-06T00:20:12.171Z,76.03
2022-12-06T00:22:59.394Z,87.18
2022-12-06T00:25:46.419Z,89.22
2022-12-06T00:28:34.771Z,83.78
2022-12-06T00:31:23.652Z,90.53
2022-12-06T00:34:10.605Z,100.60
2022-12-06T00:36:57.912Z,122.43
2022-12-06T00:39:45.153Z,143.52
2022-12-06T00:42:32.385Z,115.70
2022-12-06T00:45:20.801Z,122.00
2022-12-06T00:48:08.197Z,130.80
2022-12-06T00:50:55.400Z,122.13
2022-12-06T00:53:42.846Z,101.93
2022-12-06T00:56:30.091Z,94.35
2022-12-06T00:59:17.188Z,87.43
2022-12-06T01:02:07.326Z,84.90
2022-12-06T01:04:54.290Z,83.78
2022-12-06T01:07:41.574Z,76.32
2022-12-06T01:10:28.393Z,83.53
2022-12-06T01:13:15.328Z,69.72
2022-12-06T01:16:07.336Z,70.00
2022-12-06T01:18:57.216Z,66.40
2022-12-06T01:21:44.197Z,75.40
2022-12-06T01:24:31.163Z,83.20
2022-12-06T01:27:18.158Z,71.57
2022-12-06T01:30:06.338Z,77.55
2022-12-06T01:32:53.237Z,72.28
2022-12-06T01:35:42.462Z,65.38
2022-12-06T01:38:29.702Z,66.00
2022-12-06T01:41:16.849Z,61.97
2022-12-06T01:44:04.262Z,59.80
2022-12-06T01:46:51.085Z,61.63
2022-12-06T01:49:38.313Z,79.85
2022-12-06T01:52:32.424Z,72.68
2022-12-06T01:55:21.430Z,63.33
2022-12-06T01:58:11.338Z,66.22
2022-12-06T02:00:58.500Z,64.65
2022-12-06T02:03:46.031Z,56.25
2022-12-06T02:06:33.943Z,59.35
2022-12-06T02:09:23.239Z,64.28
2022-12-06T02:12:14.354Z,58.97
2022-12-06T02:15:01.441Z,60.83
2022-12-06T02:17:53.130Z,59.42
2022-12-06T02:20:46.808Z,65.68
2022-12-06T02:24:20.066Z,66.40
2022-12-06T02:27:31.147Z,62.90
2022-12-06T02:30:37.289Z,63.55
2022-12-06T02:33:30.330Z,61.38
2022-12-06T02:36:27.394Z,53.33
2022-12-06T02:39:19.766Z,60.20
2022-12-06T02:42:10.011Z,59.17
2022-12-06T02:45:00.254Z,62.55
2022-12-06T02:47:50.778Z,85.40
2022-12-06T02:50:40.830Z,80.65
2022-12-06T02:53:30.136Z,82.18
2022-12-06T02:56:18.900Z,76.70
2022-12-06T02:59:06.753Z,92.35
2022-12-06T03:01:57.719Z,60.70
2022-12-06T03:04:58.053Z,65.05
2022-12-06T03:07:47.468Z,68.15
2022-12-06T03:10:46.236Z,60.50
2022-12-06T03:13:39.005Z,66.40
2022-12-06T03:16:30.217Z,61.80
2022-12-06T03:19:21.687Z,54.38
2022-12-06T03:22:13.426Z,57.50
2022-12-06T03:25:01.972Z,64.22
2022-12-06T03:27:50.921Z,62.75
2022-12-06T03:30:39.098Z,69.05
2022-12-06T03:33:28.602Z,66.43
2022-12-06T03:36:18.448Z,76.20
2022-12-06T03:39:09.074Z,72.10
2022-12-06T03:41:59.172Z,61.15
2022-12-06T03:44:47.401Z,62.17
2022-12-06T03:47:39.185Z,63.13
2022-12-06T03:50:31.472Z,68.03
2022-12-06T03:53:18.884Z,65.80
2022-12-06T03:56:07.800Z,71.47
2022-12-06T03:58:54.548Z,80.75
2022-12-06T04:01:42.018Z,70.13
2022-12-06T04:04:29.240Z,69.43
2022-12-06T04:07:21.290Z,76.13
2022-12-06T04:10:09.201Z,72.38
2022-12-06T04:13:05.336Z,69.18
2022-12-06T04:15:57.407Z,61.53
2022-12-06T04:18:43.906Z,69.78
2022-12-06T04:24:35.223Z,71.18
2022-12-06T04:27:40.169Z,64.22
2022-12-06T04:30:46.416Z,64.93
2022-12-06T04:33:51.338Z,84.20
2022-12-06T04:36:56.588Z,99.80
2022-12-06T04:39:43.834Z,97.18
2022-12-06T04:42:47.763Z,86.30
2022-12-06T04:45:36.445Z,90.32
2022-12-06T04:48:23.512Z,69.05
2022-12-06T04:51:12.979Z,69.35
2022-12-06T04:54:00.072Z,90.13
2022-12-06T04:56:47.073Z,96.28
2022-12-06T04:59:34.230Z,86.60
2022-12-06T05:02:22.535Z,79.15
2022-12-06T05:05:10.058Z,77.68
2022-12-06T05:07:57.299Z,85.05
2022-12-06T05:10:48.389Z,74.70
2022-12-06T05:13:35.538Z,77.55
2022-12-06T05:16:22.966Z,74.05
2022-12-06T05:19:13.265Z,81.07
2022-12-06T05:22:00.137Z,81.10
2022-12-06T05:24:46.817Z,68.22
2022-12-06T05:27:36.152Z,58.42
2022-12-06T05:30:23.459Z,60.97
2022-12-06T05:33:10.559Z,71.47
2022-12-06T05:35:59.154Z,66.20
2022-12-06T05:38:51.108Z,59.67
2022-12-06T05:41:41.274Z,67.68
2022-12-06T05:44:28.148Z,67.70
2022-12-06T05:47:15.186Z,62.70
2022-12-06T05:50:02.157Z,63.22
2022-12-06T05:52:54.485Z,63.05
2022-12-06T05:55:41.900Z,61.30
2022-12-06T05:58:28.652Z,60.53
2022-12-06T06:01:15.864Z,66.40
2022-12-06T06:04:03.173Z,62.33
2022-12-06T06:06:50.330Z,64.53
2022-12-06T06:09:38.866Z,75.78
2022-12-06T06:12:26.182Z,65.10
2022-12-06T06:15:14.071Z,67.60
2022-12-06T06:18:01.163Z,73.85
2022-12-06T06:20:52.471Z,77.35
2022-12-06T06:23:39.918Z,71.55
2022-12-06T06:26:28.346Z,90.78
2022-12-06T06:29:15.770Z,85.57
2022-12-06T06:32:03.202Z,82.20
2022-12-06T06:34:50.805Z,79.93
2022-12-06T06:37:37.961Z,84.22
2022-12-06T06:40:24.981Z,106.90
2022-12-06T06:43:20.464Z,94.55
2022-12-06T06:46:08.442Z,42.80
2022-12-06T06:48:55.299Z,38.80
2022-12-06T06:51:42.399Z,36.78
2022-12-06T06:54:29.350Z,38.90
2022-12-06T06:57:17.982Z,44.53
2022-12-06T07:00:08.355Z,46.55
2022-12-06T07:02:55.661Z,35.15
2022-12-06T07:05:43.694Z,29.15
2022-12-06T07:08:32.273Z,30.40
2022-12-06T07:11:18.982Z,23.08
2022-12-06T07:14:06.161Z,32.33
2022-12-06T07:16:55.017Z,36.20
2022-12-06T07:19:41.717Z,45.40
2022-12-06T07:22:28.586Z,35.08
2022-12-06T07:25:16.252Z,36.00
2022-12-06T07:28:03.711Z,34.00
2022-12-06T07:30:50.977Z,28.48
2022-12-06T07:33:50.553Z,37.00
2022-12-06T07:36:38.012Z,30.55
2022-12-06T07:39:26.796Z,32.85
2022-12-06T07:42:31.396Z,23.88
2022-12-06T07:45:18.695Z,26.13
2022-12-06T07:48:07.008Z,30.55
2022-12-06T07:50:55.534Z,22.48
2022-12-06T07:53:43.058Z,19.02
2022-12-06T07:56:30.486Z,18.05
2022-12-06T07:59:17.337Z,23.08
2022-12-06T08:02:04.671Z,19.40
2022-12-06T08:04:51.933Z,22.35
2022-12-06T08:07:40.193Z,19.90
2022-12-06T08:10:27.671Z,23.42
2022-12-06T08:13:14.764Z,26.35
2022-12-06T08:16:06.250Z,26.25
2022-12-06T08:18:53.828Z,21.23
2022-12-06T08:21:41.291Z,19.17
2022-12-06T08:24:29.640Z,23.95
2022-12-06T08:27:16.932Z,22.80
2022-12-06T08:30:03.776Z,23.77
2022-12-06T08:32:52.859Z,37.47
2022-12-06T08:35:46.141Z,39.47
2022-12-06T08:38:35.820Z,47.85
2022-12-06T08:41:50.215Z,35.40
2022-12-06T08:44:37.610Z,23.50
2022-12-06T08:47:24.367Z,32.42
2022-12-06T08:50:11.902Z,26.05
2022-12-06T08:52:59.266Z,25.75
2022-12-06T08:56:02.375Z,23.05
2022-12-06T08:58:51.875Z,26.73
2022-12-06T09:01:39.348Z,24.52
2022-12-06T09:04:27.457Z,24.73
2022-12-06T09:07:14.706Z,30.63
2022-12-06T09:10:04.705Z,28.13
2022-12-06T09:12:51.819Z,19.38
2022-12-06T09:15:40.708Z,33.28
2022-12-06T09:18:27.927Z,24.90
2022-12-06T09:21:17.992Z,29.30
2022-12-06T09:24:05.115Z,22.52
2022-12-06T09:26:52.336Z,27.67
2022-12-06T09:29:40.957Z,28.42
2022-12-06T09:32:30.034Z,33.85
2022-12-06T09:35:19.729Z,25.15
2022-12-06T09:38:11.360Z,25.42
2022-12-06T09:41:10.311Z,31.45
2022-12-06T09:44:16.115Z,27.27
2022-12-06T09:47:17.123Z,23.58
2022-12-06T09:50:14.759Z,21.75
2022-12-06T09:53:15.245Z,28.50
2022-12-06T09:56:08.707Z,24.80
2022-12-06T09:59:08.698Z,25.98
2022-12-06T10:02:15.356Z,21.55
2022-12-06T10:05:30.157Z,31.65
2022-12-06T10:08:28.972Z,31.92
2022-12-06T10:11:26.592Z,33.38
2022-12-06T10:14:27.066Z,25.55
2022-12-06T10:17:23.185Z,20.77
2022-12-06T10:20:19.442Z,28.17
2022-12-06T10:23:18.465Z,24.85
2022-12-06T10:26:14.990Z,30.55
2022-12-06T10:29:13.466Z,57.80
2022-12-06T10:32:03.407Z,54.08
2022-12-06T10:34:56.767Z,38.10
2022-12-06T10:37:56.762Z,32.75
2022-12-06T10:40:52.199Z,27.70
2022-12-06T10:43:48.498Z,33.15
2022-12-06T10:46:57.214Z,28.10
2022-12-06T10:49:52.760Z,26.67
2022-12-06T10:52:44.865Z,21.92
2022-12-06T10:55:40.745Z,24.77
2022-12-06T10:58:34.079Z,28.90
2022-12-06T11:01:24.419Z,22.42
2022-12-06T11:04:17.162Z,19.80
2022-12-06T11:07:09.332Z,17.17
2022-12-06T11:09:58.688Z,17.02
2022-12-06T11:12:49.824Z,20.77
2022-12-06T11:15:39.631Z,18.85
2022-12-06T11:18:29.624Z,17.83
2022-12-06T11:21:25.782Z,18.55
2022-12-06T11:24:19.328Z,16.67
2022-12-06T11:27:15.747Z,15.57
2022-12-06T11:30:19.604Z,13.55
2022-12-06T11:33:08.466Z,15.40
2022-12-06T11:35:55.274Z,12.07
2022-12-06T11:38:44.894Z,11.15
2022-12-06T11:41:35.935Z,10.80
2022-12-06T11:44:27.143Z,9.98
2022-12-06T11:47:18.611Z,9.73
2022-12-06T11:50:16.937Z,11.13
2022-12-06T11:53:08.707Z,9.60
2022-12-06T11:55:59.244Z,9.30
2022-12-06T11:59:01.898Z,8.05
2022-12-06T12:01:51.790Z,9.35
2022-12-06T12:04:42.248Z,10.35
2022-12-06T12:07:29.465Z,11.30
2022-12-06T12:10:29.942Z,9.40
2022-12-06T12:13:39.326Z,9.45
2022-12-06T12:16:30.468Z,12.57
2022-12-06T12:19:31.623Z,11.10
2022-12-06T12:22:29.507Z,10.93
2022-12-06T12:25:26.649Z,15.20
2022-12-06T12:28:26.739Z,13.07
2022-12-06T12:31:19.786Z,12.82
2022-12-06T12:34:19.778Z,10.68
2022-12-06T12:37:22.275Z,12.32
2022-12-06T12:40:23.740Z,12.55
2022-12-06T12:43:18.940Z,12.95
2022-12-06T12:46:22.113Z,10.77
2022-12-06T12:49:24.297Z,11.43
2022-12-06T12:52:29.352Z,11.23
2022-12-06T12:55:21.831Z,10.85
2022-12-06T12:58:13.174Z,10.70
2022-12-06T13:01:06.243Z,11.82
2022-12-06T13:03:56.577Z,11.88
2022-12-06T13:06:49.715Z,15.20
2022-12-06T13:09:46.839Z,14.45
2022-12-06T13:12:40.737Z,12.57
2022-12-06T13:15:32.827Z,12.85
2022-12-06T13:18:23.460Z,14.80
2022-12-06T13:21:20.626Z,13.20
2022-12-06T13:24:16.508Z,14.88
2022-12-06T13:27:06.188Z,13.68
2022-12-06T13:30:00.825Z,11.82
2022-12-06T13:32:52.419Z,16.30
2022-12-06T13:35:44.233Z,10.60
2022-12-06T13:38:33.281Z,13.07
2022-12-06T13:42:11.643Z,12.00
2022-12-06T13:47:51.717Z,13.10
2022-12-06T13:50:55.251Z,14.30
2022-12-06T13:54:19.597Z,13.60
2022-12-06T13:57:30.023Z,15.57
2022-12-06T14:00:55.482Z,15.25
2022-12-06T14:03:43.883Z,16.00
2022-12-06T14:06:43.949Z,16.08
2022-12-06T14:09:40.965Z,14.02
2022-12-06T14:12:29.773Z,14.20
2022-12-06T14:15:20.569Z,14.77
2022-12-06T14:18:12.963Z,14.02
2022-12-06T14:21:02.851Z,12.30
2022-12-06T14:23:50.167Z,13.40
2022-12-06T14:26:37.287Z,14.95
2022-12-06T14:29:25.521Z,16.70
2022-12-06T14:32:12.707Z,17.00
2022-12-06T14:35:04.206Z,13.13
2022-12-06T14:37:55.097Z,14.07
2022-12-06T14:41:01.988Z,15.38
2022-12-06T14:43:49.290Z,16.80
2022-12-06T14:46:37.260Z,13.48
2022-12-06T14:49:42.524Z,42.30
2022-12-06T14:52:31.987Z,31.27
2022-12-06T14:55:21.455Z,36.45
2022-12-06T14:58:17.814Z,47.80
2022-12-06T15:01:07.220Z,47.60
2022-12-06T15:04:01.477Z,48.38
2022-12-06T15:06:54.288Z,60.25
2022-12-06T15:09:46.700Z,88.40
2022-12-06T15:12:55.622Z,68.63
2022-12-06T15:15:46.121Z,59.55
2022-12-06T15:18:34.537Z,118.15
2022-12-06T15:21:21.627Z,57.85
2022-12-06T15:24:18.609Z,133.20
2022-12-06T15:27:05.767Z,68.10
2022-12-06T15:29:54.224Z,38.78
2022-12-06T15:32:41.483Z,34.00
2022-12-06T15:35:28.378Z,22.30
2022-12-06T15:38:15.670Z,27.83
2022-12-06T15:41:02.611Z,24.42
2022-12-06T15:43:50.749Z,27.17
2022-12-06T15:46:39.179Z,25.45
2022-12-06T15:49:27.046Z,26.15
2022-12-06T15:52:17.290Z,24.05
2022-12-06T15:55:04.421Z,24.48
2022-12-06T15:57:51.791Z,20.60
2022-12-06T16:00:39.169Z,21.95
2022-12-06T16:03:28.418Z,17.25
2022-12-06T16:06:16.473Z,18.23
2022-12-06T16:09:03.211Z,21.05
2022-12-06T16:11:50.411Z,19.80
2022-12-06T16:14:37.632Z,18.77
2022-12-06T16:17:25.738Z,19.00
2022-12-06T16:20:35.658Z,19.50
2022-12-06T16:26:49.015Z,17.88
2022-12-06T16:29:36.340Z,15.35
2022-12-06T16:32:23.446Z,19.08
2022-12-06T16:35:10.456Z,20.90
2022-12-06T16:37:58.976Z,17.33
2022-12-06T16:40:47.446Z,19.98
2022-12-06T16:43:34.821Z,20.23
2022-12-06T16:46:30.655Z,24.58
2022-12-06T16:49:45.383Z,25.55
2022-12-06T16:52:27.629Z,31.42
2022-12-06T16:55:16.463Z,26.85
2022-12-06T16:58:03.780Z,27.17
2022-12-06T17:00:50.995Z,28.63
2022-12-06T17:03:38.314Z,25.17
2022-12-06T17:06:26.990Z,26.77
2022-12-06T17:09:14.651Z,27.63
2022-12-06T17:12:07.116Z,52.03
2022-12-06T17:14:54.375Z,28.90
2022-12-06T17:17:41.648Z,22.73
2022-12-06T17:20:28.367Z,30.27
2022-12-06T17:23:15.626Z,26.40
2022-12-06T17:26:02.550Z,28.75
2022-12-06T17:28:51.102Z,21.88
2022-12-06T17:31:39.193Z,39.10
2022-12-06T17:34:27.491Z,35.38
2022-12-06T17:37:14.891Z,25.65
2022-12-06T17:40:01.844Z,24.73
2022-12-06T17:42:59.876Z,26.45
2022-12-06T17:45:48.528Z,21.10
2022-12-06T17:48:39.005Z,21.08
2022-12-06T17:51:29.372Z,20.55
2022-12-06T17:54:17.129Z,18.38
2022-12-06T17:57:04.110Z,19.58
2022-12-06T17:59:51.300Z,21.38
2022-12-06T18:02:40.204Z,19.48
2022-12-06T18:05:27.057Z,22.17
2022-12-06T18:08:14.376Z,34.63
2022-12-06T18:11:02.163Z,21.05
2022-12-06T18:13:49.484Z,22.70
2022-12-06T18:16:39.289Z,21.65
2022-12-06T18:19:27.712Z,26.83
2022-12-06T18:22:15.485Z,23.20
2022-12-06T18:25:02.719Z,22.52
2022-12-06T18:27:50.036Z,24.77
2022-12-06T18:30:37.439Z,46.53
2022-12-06T18:33:29.546Z,28.60
2022-12-06T18:36:20.288Z,30.45
2022-12-06T18:39:14.166Z,45.92
2022-12-06T18:42:02.160Z,25.38
2022-12-06T18:44:51.456Z,31.02
2022-12-06T18:47:42.053Z,41.92
2022-12-06T18:50:30.176Z,42.15
2022-12-06T18:53:19.546Z,42.80
2022-12-06T18:56:09.381Z,60.17
2022-12-06T18:58:58.738Z,46.17
2022-12-06T19:01:45.873Z,55.47
2022-12-06T19:04:32.988Z,41.65
2022-12-06T19:07:24.986Z,35.90
2022-12-06T19:10:15.941Z,29.13
2022-12-06T19:13:05.854Z,22.40
2022-12-06T19:15:53.013Z,26.48
2022-12-06T19:18:40.232Z,21.38
2022-12-06T19:21:28.462Z,32.83
2022-12-06T19:24:20.254Z,30.80
2022-12-06T19:27:08.638Z,35.92
2022-12-06T19:29:55.704Z,24.88
2022-12-06T19:32:42.685Z,19.77
2022-12-06T19:35:29.978Z,27.58
2022-12-06T19:38:17.115Z,24.83
2022-12-06T19:41:05.109Z,21.30
2022-12-06T19:44:11.510Z,21.58
2022-12-06T19:46:59.911Z,22.67
2022-12-06T19:49:46.881Z,26.08
2022-12-06T19:52:33.910Z,22.63
2022-12-06T19:55:21.023Z,19.65
2022-12-06T19:58:11.258Z,19.52
2022-12-06T20:00:59.847Z,19.70
2022-12-06T20:03:48.040Z,15.18
2022-12-06T20:06:36.705Z,18.42
2022-12-06T20:09:27.037Z,17.50
2022-12-06T20:12:15.039Z,21.30
2022-12-06T20:15:02.259Z,24.85
2022-12-06T20:17:50.756Z,21.58
2022-12-06T20:20:37.958Z,21.27
2022-12-06T20:23:25.998Z,27.67
2022-12-06T20:26:15.179Z,21.08
2022-12-06T20:29:02.614Z,26.98
2022-12-06T20:31:51.353Z,24.90
2022-12-06T20:34:40.003Z,23.08
2022-12-06T20:37:27.045Z,18.90
2022-12-06T20:40:15.169Z,20.38
2022-12-06T20:43:02.281Z,25.15
2022-12-06T20:45:49.471Z,30.35
2022-12-06T20:48:37.082Z,21.33
2022-12-06T20:51:27.306Z,24.85
2022-12-06T20:54:14.352Z,23.88
2022-12-06T20:57:06.425Z,39.88
2022-12-06T20:59:53.321Z,28.30
2022-12-06T21:02:40.713Z,28.05
2022-12-06T21:05:27.729Z,27.73
2022-12-06T21:08:16.161Z,30.58
2022-12-06T21:14:13.315Z,24.58
2022-12-06T21:17:00.490Z,34.72
2022-12-06T21:19:47.508Z,39.63
2022-12-06T21:22:34.608Z,40.92
2022-12-06T21:25:23.185Z,34.92
2022-12-06T21:28:09.982Z,28.45
2022-12-06T21:30:57.931Z,24.05
2022-12-06T21:33:44.825Z,27.38
2022-12-06T21:36:31.759Z,21.33
2022-12-06T21:39:19.329Z,41.28
2022-12-06T21:42:07.529Z,32.30
2022-12-06T21:44:54.271Z,31.33
2022-12-06T21:47:41.412Z,44.05
2022-12-06T21:50:28.387Z,39.42
2022-12-06T21:53:15.261Z,51.28
2022-12-06T21:56:07.445Z,24.48
2022-12-06T21:58:56.125Z,28.20
2022-12-06T22:01:43.302Z,31.05
2022-12-06T22:04:30.617Z,31.83
2022-12-06T22:07:17.720Z,26.45
2022-12-06T22:10:05.726Z,29.10
2022-12-06T22:12:53.028Z,47.28
2022-12-06T22:15:41.288Z,35.42
2022-12-06T22:18:29.086Z,26.77
2022-12-06T22:21:19.355Z,60.25
2022-12-06T22:24:06.417Z,31.55
2022-12-06T22:26:54.712Z,19.98
2022-12-06T22:29:43.329Z,33.90
2022-12-06T22:32:34.598Z,20.98
2022-12-06T22:35:22.189Z,23.65
2022-12-06T22:38:09.214Z,20.05
2022-12-06T22:40:57.778Z,33.75
2022-12-06T22:43:44.711Z,24.02
2022-12-06T22:46:32.299Z,20.63
2022-12-06T22:49:20.938Z,22.95
2022-12-06T22:52:07.869Z,20.40
2022-12-06T22:54:55.309Z,19.40
2022-12-06T22:57:42.221Z,18.13
2022-12-06T23:00:29.456Z,26.52
2022-12-06T23:03:16.637Z,24.13
2022-12-06T23:06:05.470Z,18.42
2022-12-06T23:08:53.068Z,19.25
2022-12-06T23:11:40.307Z,16.52
2022-12-06T23:14:27.481Z,23.33
2022-12-06T23:17:14.486Z,22.25
2022-12-06T23:20:01.730Z,24.70
2022-12-06T23:22:50.711Z,21.35
2022-12-06T23:25:38.250Z,27.27
2022-12-06T23:28:25.352Z,33.00
2022-12-06T23:31:15.293Z,31.27
2022-12-06T23:34:04.373Z,32.05
2022-12-06T23:36:51.971Z,20.67
2022-12-06T23:39:40.803Z,17.67
2022-12-06T23:42:29.032Z,18.70
2022-12-06T23:45:16.490Z,18.15
2022-12-06T23:48:03.699Z,23.90
2022-12-06T23:50:50.627Z,24.98
2022-12-06T23:53:38.041Z,31.83
2022-12-06T23:56:28.898Z,35.67
2022-12-06T23:59:17.580Z,28.55
